Time;durP1;ratioP1;P1;durP2;ratioP2;P2;SDS_P1;SDS_P2;PMS_P1;PMS_P2;Temp;Humidity;BMP_temperature;BMP_pressure;BME280_temperature;BME280_humidity;BME280_pressure;Samples;Min_cycle;Max_cycle;Signal;HPM_P1;HPM_P2
2022/06/25 00:01:41;;;;;;;0.80;0.80;;;23.20;59.00;;;;;;5035213;28;20694;-71
2022/06/25 00:05:27;;;;;;;1.17;0.90;;;23.20;59.40;;;;;;5035047;28;20713;-70
2022/06/25 00:06:55;;;;;;;0.90;0.85;;;23.20;59.40;;;;;;5035411;28;20207;-70
2022/06/25 00:09:23;;;;;;;0.70;0.70;;;23.10;59.50;;;;;;5035253;28;20250;-70
2022/06/25 00:14:35;;;;;;;0.80;0.80;;;23.10;59.40;;;;;;5034905;28;20719;-71
2022/06/25 00:17:02;;;;;;;1.30;1.10;;;23.10;59.60;;;;;;5035773;28;20200;-70
2022/06/25 00:19:29;;;;;;;2.60;1.00;;;23.10;59.30;;;;;;5036476;28;20224;-70
2022/06/25 00:21:56;;;;;;;1.85;0.85;;;23.10;59.20;;;;;;5035002;28;20206;-69
2022/06/25 00:24:25;;;;;;;0.88;0.88;;;23.10;59.20;;;;;;5035949;28;20274;-70
2022/06/25 00:26:52;;;;;;;0.90;0.90;;;23.10;59.30;;;;;;5034684;28;20742;-71
2022/06/25 00:29:19;;;;;;;0.90;0.90;;;23.10;59.20;;;;;;5034248;28;20302;-70
2022/06/25 00:31:46;;;;;;;1.45;0.77;;;23.10;59.20;;;;;;5034519;28;20581;-71
2022/06/25 00:34:14;;;;;;;0.90;0.90;;;23.10;59.70;;;;;;5034102;28;20238;-70
2022/06/25 00:36:41;;;;;;;0.95;0.93;;;23.10;59.20;;;;;;5034498;28;20223;-70
2022/06/25 00:39:08;;;;;;;0.80;0.80;;;23.10;59.20;;;;;;5035322;28;20290;-69
2022/06/25 00:41:36;;;;;;;1.00;1.00;;;23.10;59.20;;;;;;5035400;28;20195;-70
2022/06/25 00:44:07;;;;;;;1.35;0.90;;;23.00;59.00;;;;;;5034343;28;20247;-70
2022/06/25 00:46:35;;;;;;;0.95;0.75;;;23.00;59.00;;;;;;5034159;28;20183;-70
2022/06/25 00:49:02;;;;;;;1.42;0.80;;;23.10;59.20;;;;;;5033946;28;20293;-70
2022/06/25 00:51:29;;;;;;;1.10;1.00;;;23.00;59.20;;;;;;5034028;28;20220;-71
2022/06/25 00:53:57;;;;;;;1.98;0.82;;;23.00;59.30;;;;;;5034021;28;20243;-70
2022/06/25 00:56:24;;;;;;;0.82;0.82;;;23.00;59.20;;;;;;5035878;28;20215;-71
2022/06/25 00:58:53;;;;;;;0.73;0.73;;;23.00;59.20;;;;;;5033874;28;20647;-70
2022/06/25 01:01:20;;;;;;;0.80;0.80;;;23.00;59.90;;;;;;5034333;28;20200;-71
2022/06/25 01:03:48;;;;;;;0.70;0.70;;;23.00;59.30;;;;;;5033683;28;20763;-70
2022/06/25 01:06:16;;;;;;;0.95;0.90;;;23.00;59.40;;;;;;5033851;28;20298;-70
2022/06/25 01:08:43;;;;;;;0.80;0.80;;;23.00;59.40;;;;;;5033775;28;20227;-71
2022/06/25 01:11:11;;;;;;;0.70;0.70;;;23.00;59.40;;;;;;5033984;28;20196;-70
2022/06/25 01:13:38;;;;;;;0.95;0.80;;;23.00;59.30;;;;;;5033764;28;20307;-71
2022/06/25 01:16:06;;;;;;;1.15;1.05;;;23.00;59.30;;;;;;5033699;28;20200;-71
2022/06/25 01:18:33;;;;;;;2.17;0.98;;;22.90;59.10;;;;;;5033448;28;20204;-70
2022/06/25 01:21:00;;;;;;;1.38;1.00;;;22.90;59.10;;;;;;5033503;28;20207;-70
2022/06/25 01:23:29;;;;;;;1.10;1.00;;;22.90;59.20;;;;;;5034654;28;20212;-70
2022/06/25 01:25:56;;;;;;;0.80;0.80;;;22.90;59.20;;;;;;5033445;28;20246;-70
2022/06/25 01:28:24;;;;;;;1.52;1.00;;;22.90;59.20;;;;;;5033099;28;20200;-71
2022/06/25 01:30:51;;;;;;;1.10;0.80;;;22.90;59.30;;;;;;5033527;28;20204;-71
2022/06/25 01:33:18;;;;;;;0.90;0.90;;;22.90;59.40;;;;;;5033071;28;20390;-70
2022/06/25 01:35:45;;;;;;;0.90;0.80;;;22.90;59.40;;;;;;5033336;28;20192;-71
2022/06/25 01:38:12;;;;;;;0.80;0.80;;;22.90;59.40;;;;;;5033095;28;20196;-71
2022/06/25 01:40:41;;;;;;;1.50;0.80;;;22.90;59.40;;;;;;5032990;28;20234;-70
2022/06/25 01:43:08;;;;;;;1.58;1.20;;;22.80;59.40;;;;;;5032994;28;20200;-71
2022/06/25 01:45:37;;;;;;;0.95;0.90;;;22.80;60.00;;;;;;5033128;28;20207;-71
2022/06/25 01:48:05;;;;;;;0.63;0.63;;;22.90;59.50;;;;;;5033198;28;20196;-71
2022/06/25 01:50:32;;;;;;;0.95;0.90;;;22.80;59.70;;;;;;5034174;28;20290;-71
2022/06/25 01:53:00;;;;;;;1.75;0.88;;;22.90;59.60;;;;;;5033025;28;20192;-70
2022/06/25 01:55:27;;;;;;;1.00;1.00;;;22.80;59.60;;;;;;5032570;28;20215;-70
2022/06/25 01:57:56;;;;;;;1.10;0.90;;;22.80;59.60;;;;;;5032870;28;20326;-70
2022/06/25 02:00:26;;;;;;;0.80;0.80;;;22.80;59.60;;;;;;5032688;28;20684;-70
2022/06/25 02:02:57;;;;;;;1.42;0.90;;;22.70;59.60;;;;;;5032915;28;20277;-71
2022/06/25 02:08:07;;;;;;;0.75;0.70;;;22.80;59.70;;;;;;5031658;28;20209;-70
2022/06/25 02:10:34;;;;;;;0.90;0.90;;;22.70;59.80;;;;;;5032666;28;20746;-70
2022/06/25 02:13:03;;;;;;;3.00;0.80;;;22.70;59.80;;;;;;5032596;28;20200;-71
2022/06/25 02:15:30;;;;;;;1.52;0.88;;;22.80;59.90;;;;;;5032005;28;20220;-70
2022/06/25 02:17:57;;;;;;;0.70;0.70;;;22.70;59.70;;;;;;5033871;28;20216;-70
2022/06/25 02:20:26;;;;;;;0.80;0.80;;;22.70;59.80;;;;;;5032441;28;20188;-70
2022/06/25 02:22:52;;;;;;;0.90;0.90;;;22.70;59.80;;;;;;5032372;28;20200;-71
2022/06/25 02:25:22;;;;;;;1.40;0.90;;;22.70;60.00;;;;;;5032202;28;20737;-71
2022/06/25 02:27:49;;;;;;;0.80;0.80;;;22.70;60.20;;;;;;5032376;28;20586;-70
2022/06/25 02:30:18;;;;;;;0.90;0.90;;;22.70;60.10;;;;;;5032149;28;20212;-71
2022/06/25 02:32:45;;;;;;;1.30;1.20;;;22.70;60.10;;;;;;5032403;28;20273;-70
2022/06/25 02:35:12;;;;;;;0.90;0.90;;;22.70;60.20;;;;;;5032200;28;20224;-72
2022/06/25 02:37:39;;;;;;;0.70;0.70;;;22.70;60.20;;;;;;5032674;28;20197;-71
2022/06/25 02:40:07;;;;;;;0.90;0.90;;;22.70;60.10;;;;;;5032233;28;20718;-70
2022/06/25 02:42:38;;;;;;;0.85;0.85;;;22.70;60.10;;;;;;5032748;28;20287;-70
2022/06/25 02:45:08;;;;;;;1.00;0.90;;;22.70;60.10;;;;;;5032148;28;20235;-70
2022/06/25 02:47:39;;;;;;;0.85;0.85;;;22.70;60.20;;;;;;5032762;28;20262;-71
2022/06/25 02:50:11;;;;;;;1.58;0.82;;;22.60;60.10;;;;;;5032152;28;20219;-71
2022/06/25 02:52:40;;;;;;;0.80;0.80;;;22.70;60.30;;;;;;5032773;28;20207;-71
2022/06/25 02:55:11;;;;;;;1.45;0.90;;;22.70;60.20;;;;;;5032479;28;20247;-70
2022/06/25 03:00:36;;;;;;;0.90;0.90;;;22.60;60.00;;;;;;5033197;28;20184;-71
2022/06/25 03:03:05;;;;;;;0.75;0.75;;;22.60;60.00;;;;;;5033234;28;20231;-71
2022/06/25 03:05:33;;;;;;;0.80;0.80;;;22.60;59.90;;;;;;5034014;28;20284;-70
2022/06/25 03:08:00;;;;;;;0.70;0.70;;;22.60;60.00;;;;;;5032302;28;20608;-70
2022/06/25 03:10:28;;;;;;;0.80;0.80;;;22.60;60.10;;;;;;5032066;28;20216;-70
2022/06/25 03:12:55;;;;;;;0.70;0.70;;;22.60;59.90;;;;;;5031943;28;20200;-70
2022/06/25 03:15:26;;;;;;;0.80;0.80;;;22.60;60.20;;;;;;5032053;28;20214;-71
2022/06/25 03:17:54;;;;;;;1.05;0.95;;;22.60;60.00;;;;;;5032887;28;20196;-71
2022/06/25 03:20:41;;;;;;;0.80;0.80;;;22.60;60.30;;;;;;5033447;28;20198;-70
2022/06/25 03:23:11;;;;;;;0.70;0.70;;;22.60;60.40;;;;;;5031982;28;20196;-70
2022/06/25 03:25:41;;;;;;;0.80;0.80;;;22.70;60.40;;;;;;5032807;28;20196;-70
2022/06/25 03:28:09;;;;;;;0.90;0.90;;;22.70;60.50;;;;;;5034129;28;20208;-70
2022/06/25 03:30:37;;;;;;;0.75;0.75;;;22.80;60.30;;;;;;5035662;28;20216;-71
2022/06/25 03:33:06;;;;;;;1.08;0.98;;;22.80;60.70;;;;;;5036226;28;20202;-71
2022/06/25 03:36:00;;;;;;;0.82;0.82;;;22.90;59.90;;;;;;5036063;28;20204;-70
2022/06/25 03:38:29;;;;;;;0.80;0.80;;;22.90;59.80;;;;;;5035510;28;20200;-70
2022/06/25 03:43:40;;;;;;;1.50;0.80;;;23.00;59.70;;;;;;5034907;28;20216;-71
2022/06/25 03:46:07;;;;;;;0.80;0.80;;;23.00;59.20;;;;;;5035752;28;20218;-70
2022/06/25 03:48:34;;;;;;;0.88;0.88;;;23.00;59.60;;;;;;5035381;28;20265;-71
2022/06/25 03:51:22;;;;;;;0.80;0.80;;;23.00;59.40;;;;;;5035322;28;20700;-71
2022/06/25 03:53:49;;;;;;;0.90;0.90;;;23.00;59.00;;;;;;5034939;28;20220;-70
2022/06/25 03:56:16;;;;;;;0.95;0.95;;;23.00;59.40;;;;;;5035175;28;20200;-70
2022/06/25 03:58:46;;;;;;;0.80;0.80;;;23.00;59.20;;;;;;5035806;28;20211;-71
2022/06/25 04:01:13;;;;;;;0.80;0.80;;;23.10;59.80;;;;;;5034890;28;20196;-70
2022/06/25 04:03:41;;;;;;;0.60;0.60;;;23.00;59.00;;;;;;5034819;28;20216;-71
2022/06/25 04:06:12;;;;;;;0.85;0.85;;;23.10;59.10;;;;;;5034783;28;20550;-71
2022/06/25 04:08:44;;;;;;;1.13;0.93;;;23.10;58.70;;;;;;5034911;28;20323;-71
2022/06/25 04:11:14;;;;;;;0.98;0.90;;;23.10;58.80;;;;;;5035842;28;20701;-71
2022/06/25 04:13:49;;;;;;;0.90;0.90;;;23.10;58.80;;;;;;5034873;28;20317;-71
2022/06/25 04:16:16;;;;;;;1.88;0.90;;;23.10;59.00;;;;;;5034963;28;20579;-72
2022/06/25 04:18:44;;;;;;;1.20;1.10;;;23.10;58.80;;;;;;5034908;28;20706;-72
2022/06/25 04:21:13;;;;;;;0.80;0.80;;;23.10;58.70;;;;;;5034714;28;20283;-72
2022/06/25 04:23:43;;;;;;;1.15;1.00;;;23.10;58.70;;;;;;5035090;28;20212;-72
2022/06/25 04:26:13;;;;;;;0.90;0.90;;;23.20;58.70;;;;;;5034668;28;20551;-71
2022/06/25 04:31:35;;;;;;;0.82;0.82;;;23.20;58.80;;;;;;5035471;28;20547;-72
2022/06/25 04:34:03;;;;;;;0.90;0.90;;;23.20;58.70;;;;;;5034200;28;20281;-71
2022/06/25 04:36:31;;;;;;;2.10;1.05;;;23.20;58.50;;;;;;5034397;28;20669;-71
2022/06/25 04:39:15;;;;;;;1.70;1.30;;;23.20;58.50;;;;;;5035855;28;20188;-71
2022/06/25 04:41:42;;;;;;;1.42;1.23;;;23.20;58.20;;;;;;5034372;28;20250;-71
2022/06/25 04:44:17;;;;;;;3.15;1.52;;;23.10;57.00;;;;;;5034653;28;20228;-70
2022/06/25 04:46:45;;;;;;;1.30;1.20;;;23.00;57.40;;;;;;5035188;28;20195;-71
2022/06/25 04:49:13;;;;;;;2.40;1.33;;;22.90;57.40;;;;;;5034961;28;20279;-70
2022/06/25 04:51:44;;;;;;;1.50;1.40;;;22.80;57.40;;;;;;5034682;28;20204;-71
2022/06/25 04:54:14;;;;;;;3.83;1.42;;;22.80;57.70;;;;;;5034101;28;20220;-71
2022/06/25 04:56:45;;;;;;;2.55;1.30;;;22.90;56.90;;;;;;5033964;28;20547;-71
2022/06/25 04:59:16;;;;;;;1.75;1.40;;;22.90;57.60;;;;;;5034049;28;20547;-70
2022/06/25 05:01:50;;;;;;;1.40;1.30;;;23.00;57.70;;;;;;5035362;28;20622;-71
2022/06/25 05:04:18;;;;;;;2.13;1.42;;;23.00;57.90;;;;;;5034508;28;20226;-67
2022/06/25 05:06:46;;;;;;;3.08;1.60;;;23.00;58.60;;;;;;5034216;28;20196;-69
2022/06/25 05:09:15;;;;;;;1.45;1.35;;;23.00;58.30;;;;;;5034217;28;20683;-67
2022/06/25 05:11:43;;;;;;;2.83;1.48;;;22.90;58.90;;;;;;5034931;28;20639;-68
2022/06/25 05:14:12;;;;;;;2.08;1.30;;;22.90;58.80;;;;;;5033725;28;20220;-67
2022/06/25 05:16:40;;;;;;;2.03;1.52;;;23.20;58.10;;;;;;5034328;28;20629;-68
2022/06/25 05:19:07;;;;;;;2.60;1.50;;;23.40;57.40;;;;;;5033700;28;20210;-65
2022/06/25 05:21:35;;;;;;;1.70;1.60;;;23.70;57.00;;;;;;5033600;28;20242;-68
2022/06/25 05:24:05;;;;;;;1.80;1.50;;;23.90;56.60;;;;;;5033329;28;20642;-68
2022/06/25 05:26:32;;;;;;;1.60;1.38;;;24.20;56.10;;;;;;5033263;28;20196;-68
2022/06/25 05:29:00;;;;;;;2.67;1.40;;;24.40;55.70;;;;;;5033316;28;20279;-68
2022/06/25 05:31:28;;;;;;;3.28;1.38;;;24.60;55.40;;;;;;5033195;28;20318;-68
2022/06/25 05:33:56;;;;;;;2.47;1.48;;;24.70;55.00;;;;;;5033028;28;20220;-68
2022/06/25 05:36:23;;;;;;;1.77;1.67;;;24.90;54.90;;;;;;5033109;28;20567;-68
2022/06/25 05:38:50;;;;;;;1.83;1.70;;;25.00;54.30;;;;;;5033125;28;20639;-68
2022/06/25 05:41:18;;;;;;;2.42;1.67;;;25.10;54.00;;;;;;5033009;28;20204;-69
2022/06/25 05:43:45;;;;;;;2.15;1.70;;;25.30;53.70;;;;;;5034111;28;20231;-68
2022/06/25 05:46:12;;;;;;;2.22;1.70;;;25.40;53.10;;;;;;5032990;28;20235;-68
2022/06/25 05:48:41;;;;;;;1.65;1.40;;;25.40;52.80;;;;;;5033009;28;20196;-67
2022/06/25 05:51:09;;;;;;;1.50;1.40;;;25.50;52.60;;;;;;5033685;28;20215;-67
2022/06/25 05:53:36;;;;;;;1.70;1.60;;;25.60;52.40;;;;;;5032796;28;20220;-67
2022/06/25 05:56:03;;;;;;;2.42;1.33;;;25.80;52.20;;;;;;5033108;28;20253;-68
2022/06/25 05:58:30;;;;;;;1.40;1.30;;;25.90;51.90;;;;;;5033075;28;20196;-67
2022/06/25 06:00:58;;;;;;;1.30;1.20;;;25.90;51.60;;;;;;5032754;28;20668;-68
2022/06/25 06:03:25;;;;;;;1.45;1.33;;;26.10;51.40;;;;;;5032609;28;20207;-68
2022/06/25 06:05:53;;;;;;;1.50;1.40;;;26.20;51.30;;;;;;5032718;28;20279;-68
2022/06/25 06:08:21;;;;;;;1.50;1.40;;;26.20;51.10;;;;;;5032645;28;20735;-68
2022/06/25 06:10:48;;;;;;;1.63;1.30;;;26.30;50.90;;;;;;5032219;28;20314;-68
2022/06/25 06:13:15;;;;;;;2.05;1.35;;;26.40;50.60;;;;;;5032526;28;20196;-68
2022/06/25 06:15:43;;;;;;;1.20;1.10;;;26.50;50.60;;;;;;5032695;28;20199;-68
2022/06/25 06:18:10;;;;;;;1.95;1.30;;;26.60;50.30;;;;;;5033166;28;20253;-68
2022/06/25 06:20:37;;;;;;;1.40;1.30;;;26.70;50.10;;;;;;5033974;28;20184;-68
2022/06/25 06:23:06;;;;;;;1.20;1.13;;;26.80;49.80;;;;;;5032486;28;20196;-68
2022/06/25 06:25:33;;;;;;;1.67;1.40;;;26.90;49.60;;;;;;5032358;28;20224;-68
2022/06/25 06:28:00;;;;;;;1.27;1.17;;;27.00;49.50;;;;;;5032390;28;20195;-66
2022/06/25 06:30:27;;;;;;;1.40;1.30;;;27.10;49.40;;;;;;5032344;28;20265;-68
2022/06/25 06:32:54;;;;;;;2.67;1.38;;;27.10;49.20;;;;;;5032382;28;20696;-67
2022/06/25 06:35:22;;;;;;;1.40;1.30;;;27.20;49.10;;;;;;5032836;28;20220;-67
2022/06/25 06:37:49;;;;;;;1.20;1.20;;;27.20;48.90;;;;;;5032205;28;20226;-67
2022/06/25 06:40:17;;;;;;;1.63;1.15;;;27.30;48.80;;;;;;5033446;28;20257;-67
2022/06/25 06:42:45;;;;;;;3.20;1.63;;;27.40;48.70;;;;;;5032068;28;20199;-67
2022/06/25 06:45:12;;;;;;;3.97;1.45;;;27.40;48.50;;;;;;5032353;28;20716;-68
2022/06/25 06:47:39;;;;;;;2.45;1.40;;;27.50;49.00;;;;;;5032258;28;20611;-67
2022/06/25 06:50:08;;;;;;;1.50;1.40;;;27.50;48.30;;;;;;5031912;28;20202;-67
2022/06/25 06:52:36;;;;;;;1.52;1.15;;;27.60;48.20;;;;;;5032039;28;20199;-67
2022/06/25 06:55:04;;;;;;;2.28;1.45;;;27.60;48.10;;;;;;5032275;28;20298;-67
2022/06/25 06:57:32;;;;;;;1.98;1.10;;;27.70;48.00;;;;;;5031931;28;20195;-66
2022/06/25 07:00:00;;;;;;;1.48;1.20;;;27.70;47.80;;;;;;5031831;28;20665;-66
2022/06/25 07:02:27;;;;;;;1.85;1.13;;;27.80;47.70;;;;;;5034829;28;20242;-67
2022/06/25 07:04:54;;;;;;;1.92;1.20;;;27.80;47.60;;;;;;5035962;28;20219;-68
2022/06/25 07:07:21;;;;;;;3.00;1.20;;;27.90;47.50;;;;;;5037118;28;20215;-66
2022/06/25 07:09:49;;;;;;;2.10;1.30;;;28.00;47.40;;;;;;5035828;28;20195;-67
2022/06/25 07:12:16;;;;;;;1.30;1.10;;;28.10;47.30;;;;;;5035791;28;20219;-67
2022/06/25 07:14:45;;;;;;;1.25;1.10;;;28.10;47.70;;;;;;5036094;28;20708;-68
2022/06/25 07:17:11;;;;;;;1.42;1.20;;;28.10;47.10;;;;;;5035793;28;20221;-66
2022/06/25 07:19:39;;;;;;;1.33;1.17;;;28.20;47.30;;;;;;5035920;28;20199;-67
2022/06/25 07:22:06;;;;;;;2.03;1.15;;;28.20;46.90;;;;;;5037283;28;20215;-67
2022/06/25 07:24:33;;;;;;;1.10;1.00;;;28.20;46.80;;;;;;5035504;28;20310;-67
2022/06/25 07:27:00;;;;;;;1.13;1.05;;;28.30;46.70;;;;;;5035805;28;20198;-67
2022/06/25 07:29:28;;;;;;;2.05;1.00;;;28.30;46.60;;;;;;5035816;28;20203;-67
2022/06/25 07:31:57;;;;;;;1.20;1.10;;;28.30;46.60;;;;;;5036701;28;20257;-67
2022/06/25 07:34:26;;;;;;;1.27;1.15;;;28.40;46.60;;;;;;5035740;28;20234;-67
2022/06/25 07:36:53;;;;;;;1.75;1.30;;;28.40;46.50;;;;;;5035718;28;20200;-67
2022/06/25 07:39:20;;;;;;;2.15;1.20;;;28.40;46.40;;;;;;5035712;28;20203;-67
2022/06/25 07:41:48;;;;;;;1.08;1.08;;;28.50;46.40;;;;;;5035631;28;20722;-68
2022/06/25 07:44:15;;;;;;;1.08;1.08;;;28.50;46.30;;;;;;5035630;28;20231;-67
2022/06/25 07:46:42;;;;;;;1.15;1.05;;;28.50;46.30;;;;;;5035881;28;20810;-67
2022/06/25 07:49:11;;;;;;;2.55;1.27;;;28.40;46.30;;;;;;5036463;28;20204;-68
2022/06/25 07:54:22;;;;;;;1.10;1.00;;;28.30;46.60;;;;;;5035300;28;20598;-67
2022/06/25 07:56:49;;;;;;;1.35;1.10;;;28.30;46.50;;;;;;5035411;28;20203;-67
2022/06/25 07:59:16;;;;;;;1.80;1.20;;;28.40;46.50;;;;;;5035331;28;20199;-67
2022/06/25 08:01:44;;;;;;;1.10;1.00;;;28.50;46.30;;;;;;5035063;28;20195;-67
2022/06/25 08:04:12;;;;;;;0.90;0.90;;;28.50;46.10;;;;;;5035040;28;20243;-67
2022/06/25 08:06:41;;;;;;;1.20;1.20;;;28.60;46.00;;;;;;5035048;28;20734;-68
2022/06/25 08:09:08;;;;;;;2.72;1.20;;;28.70;45.90;;;;;;5034808;28;20199;-67
2022/06/25 08:11:35;;;;;;;1.30;1.20;;;28.70;45.70;;;;;;5034833;28;20221;-67
2022/06/25 08:14:02;;;;;;;1.20;1.10;;;28.80;45.70;;;;;;5034079;28;20222;-67
2022/06/25 08:16:30;;;;;;;1.20;1.10;;;28.80;45.60;;;;;;5034738;28;20211;-67
2022/06/25 08:18:57;;;;;;;1.00;1.00;;;28.90;45.50;;;;;;5034514;28;20286;-67
2022/06/25 08:21:25;;;;;;;1.58;1.13;;;28.90;45.40;;;;;;5034688;28;20283;-68
2022/06/25 08:23:52;;;;;;;1.00;1.00;;;28.90;45.30;;;;;;5034621;28;20696;-67
2022/06/25 08:26:21;;;;;;;1.13;1.00;;;28.90;45.30;;;;;;5034875;28;20210;-67
2022/06/25 08:28:48;;;;;;;1.05;0.95;;;28.90;45.20;;;;;;5034616;28;20226;-67
2022/06/25 08:31:15;;;;;;;1.60;1.10;;;29.00;45.20;;;;;;5034376;28;20239;-67
2022/06/25 08:33:42;;;;;;;1.65;1.10;;;29.00;45.20;;;;;;5034148;28;20234;-67
2022/06/25 08:36:10;;;;;;;1.10;1.10;;;29.00;45.20;;;;;;5034361;28;20196;-67
2022/06/25 08:38:38;;;;;;;1.05;1.05;;;29.00;45.20;;;;;;5034317;28;20203;-67
2022/06/25 08:41:05;;;;;;;1.15;1.02;;;29.00;45.10;;;;;;5034153;28;20275;-67
2022/06/25 08:43:32;;;;;;;1.10;1.10;;;29.10;45.00;;;;;;5034175;28;20298;-67
2022/06/25 08:46:00;;;;;;;1.08;1.08;;;29.10;45.00;;;;;;5034160;28;20230;-67
2022/06/25 08:48:31;;;;;;;1.00;1.00;;;29.20;44.90;;;;;;5035624;28;20188;-66
2022/06/25 08:50:58;;;;;;;1.20;1.10;;;29.10;44.90;;;;;;5034320;28;20273;-67
2022/06/25 08:53:25;;;;;;;1.10;1.08;;;29.10;45.00;;;;;;5035070;28;20261;-68
2022/06/25 08:55:54;;;;;;;1.02;0.95;;;29.10;45.00;;;;;;5034052;28;20248;-68
2022/06/25 08:58:21;;;;;;;1.20;1.02;;;29.10;45.00;;;;;;5033987;28;20219;-68
2022/06/25 09:00:48;;;;;;;1.10;1.00;;;29.10;44.90;;;;;;5033863;28;20294;-67
2022/06/25 09:03:16;;;;;;;1.27;1.17;;;29.10;44.80;;;;;;5033758;28;20206;-67
2022/06/25 09:05:43;;;;;;;1.17;1.08;;;29.20;44.90;;;;;;5034089;28;20222;-67
2022/06/25 09:08:12;;;;;;;1.20;1.08;;;29.20;44.80;;;;;;5033777;28;20199;-67
2022/06/25 09:10:39;;;;;;;1.13;1.00;;;29.20;44.70;;;;;;5033741;28;20235;-67
2022/06/25 09:13:09;;;;;;;1.00;1.00;;;29.20;44.70;;;;;;5033900;28;20207;-67
2022/06/25 09:15:39;;;;;;;1.15;1.10;;;29.20;44.70;;;;;;5033799;28;20217;-66
2022/06/25 09:18:07;;;;;;;1.05;1.05;;;29.20;44.70;;;;;;5033438;28;20207;-67
2022/06/25 09:20:34;;;;;;;1.02;1.00;;;29.20;44.70;;;;;;5033727;28;20203;-67
2022/06/25 09:23:03;;;;;;;0.88;0.88;;;29.20;44.70;;;;;;5033616;28;20223;-67
2022/06/25 09:25:31;;;;;;;0.80;0.80;;;29.10;44.70;;;;;;5032307;28;20250;-65
2022/06/25 09:27:58;;;;;;;1.20;1.10;;;29.20;44.80;;;;;;5033382;28;20204;-67
2022/06/25 09:30:28;;;;;;;0.80;0.80;;;29.10;44.70;;;;;;5033339;28;20651;-68
2022/06/25 09:32:57;;;;;;;0.95;0.95;;;29.10;44.80;;;;;;5033101;28;20207;-67
2022/06/25 09:35:32;;;;;;;0.80;0.80;;;29.10;44.80;;;;;;5032978;28;20223;-68
2022/06/25 09:38:04;;;;;;;0.95;0.95;;;29.10;45.00;;;;;;5033003;28;20683;-67
2022/06/25 09:40:32;;;;;;;0.98;0.90;;;28.90;45.10;;;;;;5032937;28;20199;-67
2022/06/25 09:42:59;;;;;;;1.10;1.00;;;28.80;45.40;;;;;;5033018;28;20202;-67
2022/06/25 09:45:27;;;;;;;0.82;0.82;;;28.60;45.70;;;;;;5032916;28;20282;-66
2022/06/25 09:47:56;;;;;;;1.05;1.00;;;28.50;46.00;;;;;;5033086;28;20200;-67
2022/06/25 09:50:23;;;;;;;0.95;0.80;;;28.40;46.30;;;;;;5032828;28;20200;-66
2022/06/25 09:52:52;;;;;;;0.90;0.90;;;28.40;46.30;;;;;;5032701;28;20247;-67
2022/06/25 09:55:19;;;;;;;0.80;0.80;;;28.40;46.30;;;;;;5032710;28;20734;-67
2022/06/25 09:57:46;;;;;;;0.82;0.82;;;28.40;46.20;;;;;;5032733;28;20314;-67
2022/06/25 10:00:15;;;;;;;1.00;1.00;;;28.50;46.10;;;;;;5032787;28;20656;-67
2022/06/25 10:02:45;;;;;;;0.98;0.98;;;28.50;45.90;;;;;;5032847;28;20652;-67
2022/06/25 10:05:13;;;;;;;1.13;1.02;;;28.60;45.90;;;;;;5032845;28;20269;-67
2022/06/25 10:10:25;;;;;;;0.88;0.88;;;28.60;45.90;;;;;;5034209;28;20171;-67
2022/06/25 10:12:53;;;;;;;1.20;1.00;;;28.60;45.80;;;;;;5032413;28;20215;-67
2022/06/25 10:15:20;;;;;;;0.88;0.88;;;28.60;45.80;;;;;;5032634;28;20314;-66
2022/06/25 10:17:49;;;;;;;0.80;0.80;;;28.60;45.90;;;;;;5032622;28;20204;-67
2022/06/25 10:20:17;;;;;;;0.77;0.77;;;28.50;46.10;;;;;;5032578;28;20222;-67
2022/06/25 10:22:45;;;;;;;0.93;0.93;;;28.40;46.30;;;;;;5032286;28;20199;-67
2022/06/25 10:25:14;;;;;;;1.45;0.95;;;28.30;46.50;;;;;;5032287;28;20215;-67
2022/06/25 10:27:42;;;;;;;1.05;1.00;;;28.30;46.60;;;;;;5032370;28;20199;-67
2022/06/25 10:30:09;;;;;;;1.00;1.00;;;28.30;46.60;;;;;;5032472;28;20672;-67
2022/06/25 10:32:49;;;;;;;1.20;1.10;;;28.30;46.70;;;;;;5032170;28;20219;-67
2022/06/25 10:35:30;;;;;;;1.00;1.00;;;28.20;46.60;;;;;;5031999;28;20281;-67
2022/06/25 10:38:02;;;;;;;1.25;1.00;;;28.20;46.70;;;;;;5032164;28;20203;-68
2022/06/25 10:40:30;;;;;;;1.20;1.10;;;28.20;47.50;;;;;;5032423;28;20199;-66
2022/06/25 10:42:59;;;;;;;1.00;1.00;;;28.10;46.90;;;;;;5032091;28;20202;-67
2022/06/25 10:45:50;;;;;;;1.65;1.00;;;28.10;47.10;;;;;;5032032;28;20218;-67
2022/06/25 10:48:22;;;;;;;0.80;0.80;;;28.00;47.10;;;;;;5015777;28;20676;-67
2022/06/25 10:50:50;;;;;;;1.05;0.98;;;28.00;47.30;;;;;;5032259;28;20211;-66
2022/06/25 10:53:18;;;;;;;0.80;0.80;;;28.00;47.40;;;;;;5032032;28;20221;-67
2022/06/25 10:56:15;;;;;;;0.73;0.73;;;27.90;47.40;;;;;;5032158;28;20203;-67
2022/06/25 10:58:43;;;;;;;0.95;0.95;;;27.90;47.50;;;;;;5032063;28;20238;-67
2022/06/25 11:01:22;;;;;;;0.90;0.90;;;27.90;47.60;;;;;;5032049;28;20209;-67
2022/06/25 11:04:04;;;;;;;0.82;0.82;;;27.90;47.80;;;;;;5031814;28;20330;-67
2022/06/25 11:06:34;;;;;;;0.90;0.90;;;27.80;47.70;;;;;;5033297;28;20179;-67
2022/06/25 11:09:13;;;;;;;0.90;0.90;;;27.80;47.90;;;;;;5031825;28;20200;-66
2022/06/25 11:11:41;;;;;;;0.90;0.90;;;27.70;48.00;;;;;;5031760;28;20787;-67
2022/06/25 11:14:19;;;;;;;0.90;0.90;;;27.60;48.00;;;;;;5031880;28;20211;-67
2022/06/25 11:16:47;;;;;;;0.98;0.98;;;27.70;48.20;;;;;;5031775;28;20187;-67
2022/06/25 11:19:15;;;;;;;0.95;0.93;;;27.60;48.20;;;;;;5031758;28;20197;-66
2022/06/25 11:21:43;;;;;;;1.10;1.10;;;27.60;48.30;;;;;;5031714;28;20203;-67
2022/06/25 11:24:16;;;;;;;1.20;1.10;;;27.60;48.30;;;;;;5031695;28;20223;-67
2022/06/25 11:29:32;;;;;;;0.90;0.90;;;27.50;48.40;;;;;;5033767;28;20179;-67
2022/06/25 11:31:59;;;;;;;0.82;0.82;;;27.50;48.60;;;;;;5032057;28;20377;-68
2022/06/25 11:34:28;;;;;;;1.00;0.90;;;27.50;48.70;;;;;;5031892;28;20223;-65
2022/06/25 11:37:00;;;;;;;0.98;0.95;;;27.40;48.70;;;;;;5032415;28;20626;-67
2022/06/25 11:39:28;;;;;;;0.90;0.90;;;27.40;48.80;;;;;;5032174;28;20204;-67
2022/06/25 11:41:55;;;;;;;1.13;1.02;;;27.50;48.90;;;;;;5033536;28;20200;-67
2022/06/25 11:44:22;;;;;;;2.28;1.17;;;27.40;48.90;;;;;;5032413;28;20219;-67
2022/06/25 11:46:49;;;;;;;1.08;1.00;;;27.40;49.00;;;;;;5037433;28;20199;-66
2022/06/25 11:49:18;;;;;;;1.02;1.00;;;27.40;49.00;;;;;;5053617;28;20222;-68
2022/06/25 11:51:47;;;;;;;2.35;1.00;;;27.40;49.20;;;;;;5037863;28;20214;-68
2022/06/25 11:54:14;;;;;;;1.00;0.90;;;27.40;49.10;;;;;;5036541;28;20243;-67
2022/06/25 11:56:50;;;;;;;1.20;1.10;;;27.40;49.10;;;;;;5037532;28;20194;-67
2022/06/25 11:59:26;;;;;;;1.40;1.30;;;27.40;49.00;;;;;;5035914;28;20198;-68
2022/06/25 12:01:54;;;;;;;1.42;1.30;;;27.40;49.00;;;;;;5050884;22;20231;-68
2022/06/25 12:04:21;;;;;;;2.63;1.20;;;27.40;49.00;;;;;;5228033;22;20877;-73
2022/06/25 12:06:50;;;;;;;2.95;1.40;;;27.30;49.30;;;;;;5133950;22;20235;-75
2022/06/25 12:09:18;;;;;;;1.40;1.27;;;27.40;49.20;;;;;;5179972;22;20338;-73
2022/06/25 12:11:52;;;;;;;2.72;1.20;;;27.30;49.30;;;;;;5036013;28;20207;-73
2022/06/25 12:14:21;;;;;;;1.30;1.20;;;27.30;49.30;;;;;;5036485;28;20194;-73
2022/06/25 12:16:48;;;;;;;2.13;1.30;;;27.30;49.30;;;;;;5204168;22;20239;-73
2022/06/25 12:19:15;;;;;;;2.22;1.30;;;27.30;49.00;;;;;;5034843;28;20253;-74
2022/06/25 12:21:42;;;;;;;1.73;1.30;;;27.30;48.90;;;;;;5035344;28;20309;-74
2022/06/25 12:24:12;;;;;;;1.33;1.23;;;27.30;48.90;;;;;;5035337;28;20249;-72
2022/06/25 12:26:41;;;;;;;2.17;1.17;;;27.30;49.00;;;;;;5034810;28;20195;-73
2022/06/25 12:29:09;;;;;;;1.75;1.30;;;27.30;48.90;;;;;;5034495;28;20195;-73
2022/06/25 12:31:36;;;;;;;3.72;1.30;;;27.30;48.90;;;;;;5034402;28;20289;-73
2022/06/25 12:34:03;;;;;;;2.60;1.33;;;27.30;48.70;;;;;;5034562;28;20215;-73
2022/06/25 12:36:30;;;;;;;1.70;1.40;;;27.20;48.50;;;;;;5034369;28;20202;-73
2022/06/25 12:38:57;;;;;;;1.77;1.40;;;27.20;48.30;;;;;;5034251;28;20195;-75
2022/06/25 12:41:47;;;;;;;2.60;1.50;;;27.20;48.30;;;;;;5034225;28;20223;-73
2022/06/25 12:44:14;;;;;;;1.80;1.45;;;27.20;48.20;;;;;;5034476;28;20261;-74
2022/06/25 12:46:41;;;;;;;2.97;1.40;;;27.20;48.30;;;;;;5034101;28;20554;-73
2022/06/25 12:49:11;;;;;;;1.50;1.40;;;27.20;48.20;;;;;;5034099;28;20735;-73
2022/06/25 12:51:39;;;;;;;1.52;1.42;;;27.20;48.30;;;;;;5034022;28;20215;-74
2022/06/25 12:54:06;;;;;;;1.67;1.40;;;27.20;48.20;;;;;;5033894;28;20215;-73
2022/06/25 12:56:33;;;;;;;1.60;1.48;;;27.10;48.10;;;;;;5033935;28;20294;-73
2022/06/25 12:59:02;;;;;;;2.20;1.35;;;27.10;48.10;;;;;;5033683;28;20200;-73
2022/06/25 13:01:32;;;;;;;2.15;1.83;;;27.10;48.20;;;;;;5033719;28;20219;-74
2022/06/25 13:04:00;;;;;;;2.28;1.50;;;27.10;48.00;;;;;;5034381;28;20250;-74
2022/06/25 13:06:27;;;;;;;2.35;1.52;;;27.10;49.00;;;;;;5033804;28;20222;-73
2022/06/25 13:08:54;;;;;;;3.25;1.40;;;27.10;48.70;;;;;;5033818;28;20203;-76
2022/06/25 13:11:22;;;;;;;1.60;1.50;;;27.10;48.70;;;;;;5033624;28;20318;-74
2022/06/25 13:13:51;;;;;;;1.60;1.50;;;27.10;48.50;;;;;;5034920;28;20294;-74
2022/06/25 13:16:19;;;;;;;1.50;1.40;;;27.10;48.50;;;;;;5210317;22;20262;-73
2022/06/25 13:18:46;;;;;;;1.52;1.27;;;27.10;48.20;;;;;;5033854;28;20195;-73